»·PEaware :: SWA700 KSFO-KSAN

SWA700 :: KSFO-KSAN

FLIGHT INFORMATION

Flight Status: Arrived
Operator:
Southwest Airlines
More flights by this operator :: More flights under this callsign
Pilot: Maximilliano F. (23467)
Aircraft: BOEING 737-800
(B738)
More flights by this aircraft type
Origin: KSFO San Francisco Intl
United States
Destination: KSAN San Diego Intl-Lindbergh
United States
More flights between these airports :: More routes between these airports
Route: +OFFSH2 MCKEY LAX COMIX2
File this flight plan on PilotEdge
Remarks: RMK / SIMBRIEF
Altitude:
(Current/Filed)
37,000ft
Speed:
(Current/Filed)
456kts
Departed: 13-Oct-19 07:51 PM
Arrived: 13-Oct-19 09:02 PM
Distance/Time
Traveled:
388nm/1:11
Distance/Time
To Go:
Arrived

Flight Plot

Page will automatically refresh every two minutes.

Flight plan parsing failed; only flown route is shown


Map Options




Map Legend


Flown Route
Filed Route
Departure Airport
Arrival Airport
Navaid (VOR, NDB)
Fix

Horizontal Profiles

Position Reports

Time Latitude Longitude Heading Altitude Ground
Speed
13-Oct-19 19:20 37.612256 -122.389027 298 32ft 0kts
13-Oct-19 19:21 37.612256 -122.389027 298 32ft 0kts
13-Oct-19 19:22 37.612256 -122.389027 298 32ft 0kts
13-Oct-19 19:23 37.612256 -122.389027 298 32ft 0kts
13-Oct-19 19:24 37.612256 -122.389027 298 32ft 0kts
13-Oct-19 19:25 37.612256 -122.389027 298 32ft 0kts
13-Oct-19 19:26 37.612256 -122.389027 298 32ft 0kts
13-Oct-19 19:27 37.612256 -122.389027 298 32ft 0kts
13-Oct-19 19:28 37.612256 -122.389027 298 32ft 0kts
13-Oct-19 19:29 37.612256 -122.389027 298 32ft 0kts
13-Oct-19 19:30 37.612256 -122.389027 298 32ft 0kts
13-Oct-19 19:31 37.612256 -122.389027 298 32ft 0kts
13-Oct-19 19:32 37.612256 -122.389027 298 32ft 0kts
13-Oct-19 19:33 37.612256 -122.389027 298 32ft 0kts
13-Oct-19 19:34 37.612256 -122.389027 298 32ft 0kts
13-Oct-19 19:35 37.612256 -122.389027 298 32ft 0kts
13-Oct-19 19:36 37.612256 -122.389027 298 32ft 0kts
13-Oct-19 19:37 37.612121 -122.388717 298 32ft 2kts
13-Oct-19 19:38 37.611546 -122.388486 28 32ft 0kts
13-Oct-19 19:39 37.611547 -122.388486 28 31ft 0kts
13-Oct-19 19:40 37.611547 -122.388486 28 31ft 0kts
13-Oct-19 19:41 37.611547 -122.388486 28 31ft 0kts
13-Oct-19 19:42 37.611547 -122.388486 28 31ft 0kts
13-Oct-19 19:43 37.611608 -122.388393 64 32ft 3kts
13-Oct-19 19:45 37.610735 -122.384940 117 34ft 4kts
13-Oct-19 19:45 37.609676 -122.384428 216 33ft 8kts
13-Oct-19 19:46 37.608495 -122.383931 117 32ft 2kts
13-Oct-19 19:47 37.608492 -122.383924 117 32ft 0kts
13-Oct-19 19:48 37.608492 -122.383924 117 32ft 0kts
13-Oct-19 19:49 37.608366 -122.383612 117 32ft 4kts
13-Oct-19 19:50 37.615177 -122.378097 28 30ft 128kts
13-Oct-19 19:51 37.661526 -122.353694 358 2155ft 206kts
13-Oct-19 19:52 37.721351 -122.372609 292 4687ft 247kts
13-Oct-19 19:53 37.688614 -122.440568 210 7825ft 268kts
13-Oct-19 19:54 37.624164 -122.492153 213 10887ft 288kts
13-Oct-19 19:55 37.558015 -122.551346 215 13817ft 296kts
13-Oct-19 19:56 37.487937 -122.616381 217 16261ft 333kts
13-Oct-19 19:57 37.402406 -122.666319 191 18871ft 363kts
13-Oct-19 19:58 37.298835 -122.653887 167 21374ft 391kts
13-Oct-19 19:59 37.190359 -122.626243 169 23791ft 411kts
13-Oct-19 20:00 37.075267 -122.599099 169 25849ft 436kts
13-Oct-19 20:01 36.954212 -122.570107 168 27993ft 453kts
13-Oct-19 20:02 36.829507 -122.537639 167 29590ft 477kts
13-Oct-19 20:03 36.696065 -122.502773 167 31320ft 495kts
13-Oct-19 20:04 36.562073 -122.468138 168 33737ft 491kts
13-Oct-19 20:05 36.435752 -122.413610 148 36149ft 476kts
13-Oct-19 20:06 36.336657 -122.306814 129 36964ft 483kts
13-Oct-19 20:07 36.249926 -122.180279 129 36964ft 481kts
13-Oct-19 20:08 36.163526 -122.054765 129 36969ft 481kts
13-Oct-19 20:09 36.076557 -121.928879 129 36975ft 481kts
13-Oct-19 20:10 35.989590 -121.803465 129 36976ft 480kts
13-Oct-19 20:11 35.902780 -121.678738 129 36968ft 480kts
13-Oct-19 20:12 35.816681 -121.555482 130 36954ft 478kts
13-Oct-19 20:13 35.729750 -121.431487 130 36955ft 477kts
13-Oct-19 20:15 35.643068 -121.308269 131 36952ft 475kts
13-Oct-19 20:16 35.556893 -121.186212 132 36953ft 474kts
13-Oct-19 20:17 35.472083 -121.063213 127 36958ft 472kts
13-Oct-19 20:18 35.397117 -120.930652 126 36958ft 471kts
13-Oct-19 20:19 35.322582 -120.798981 126 36966ft 471kts
13-Oct-19 20:20 35.247806 -120.667358 127 36965ft 468kts
13-Oct-19 20:21 35.173375 -120.536844 127 36966ft 468kts
13-Oct-19 20:22 35.098535 -120.406095 127 36966ft 468kts
13-Oct-19 20:23 35.024340 -120.276907 128 36960ft 467kts
13-Oct-19 20:24 34.949522 -120.147151 128 36952ft 467kts
13-Oct-19 20:25 34.876594 -120.021131 128 36940ft 466kts
13-Oct-19 20:26 34.802203 -119.893029 130 36942ft 461kts
13-Oct-19 20:27 34.727800 -119.765396 130 36947ft 463kts
13-Oct-19 20:28 34.653124 -119.637733 131 36949ft 463kts
13-Oct-19 20:29 34.578495 -119.510617 131 36950ft 463kts
13-Oct-19 20:30 34.503478 -119.383283 131 36950ft 463kts
13-Oct-19 20:31 34.431444 -119.261406 132 36943ft 462kts
13-Oct-19 20:31 34.368870 -119.155896 132 36941ft 461kts
13-Oct-19 20:33 34.281218 -119.008624 132 36944ft 461kts
13-Oct-19 20:34 34.205748 -118.882304 133 36961ft 460kts
13-Oct-19 20:34 34.143207 -118.777953 133 36960ft 459kts
13-Oct-19 20:35 34.068048 -118.652958 134 36945ft 459kts
13-Oct-19 20:37 33.979613 -118.506497 135 36411ft 467kts
13-Oct-19 20:38 33.899908 -118.388446 141 33681ft 447kts
13-Oct-19 20:38 33.837459 -118.308025 141 31564ft 450kts
13-Oct-19 20:39 33.753857 -118.199571 139 29012ft 438kts
13-Oct-19 20:41 33.660728 -118.077265 138 26586ft 433kts
13-Oct-19 20:41 33.594650 -117.990547 138 24831ft 405kts
13-Oct-19 20:42 33.516510 -117.893170 141 22802ft 406kts
13-Oct-19 20:43 33.438399 -117.803026 141 20801ft 374kts
13-Oct-19 20:44 33.359271 -117.718688 143 18772ft 372kts
13-Oct-19 20:45 33.283711 -117.638148 142 16856ft 376kts
13-Oct-19 20:47 33.192758 -117.541905 142 14487ft 360kts
13-Oct-19 20:47 33.131881 -117.479074 146 12906ft 333kts
13-Oct-19 20:48 33.055582 -117.415602 146 11074ft 344kts
13-Oct-19 20:49 32.980352 -117.352464 146 10264ft 317kts
13-Oct-19 20:50 32.913927 -117.296826 146 9428ft 285kts
13-Oct-19 20:51 32.852721 -117.245987 146 8250ft 257kts
13-Oct-19 20:52 32.807242 -117.186978 112 7147ft 241kts
13-Oct-19 20:53 32.788976 -117.109577 105 6256ft 232kts
13-Oct-19 20:54 32.772543 -117.037949 107 5964ft 232kts
13-Oct-19 20:55 32.750434 -116.966260 137 4937ft 229kts
13-Oct-19 20:56 32.695951 -116.970236 232 4066ft 215kts
13-Oct-19 20:57 32.697845 -117.037914 282 2858ft 213kts
13-Oct-19 20:58 32.710668 -117.095286 285 1605ft 154kts
13-Oct-19 20:59 32.722291 -117.143271 285 689ft 150kts
13-Oct-19 21:00 32.733464 -117.189341 285 21ft 99kts
13-Oct-19 21:01 32.733983 -117.195680 274 21ft 4kts
13-Oct-19 21:02 32.733754 -117.197001 204 21ft 4kts
13-Oct-19 21:03 32.733239 -117.196846 149 21ft 1kts

Navigation Log

Ident Type
Flight plan parsing failed, navigation log unavailable